Time,TemperatureF,DewpointF,PressureIn,WindDirection,WindDirectionDegrees,WindSpeedMPH,WindSpeedGustMPH,Humidity,HourlyPrecipIn,Conditions,Clouds,dailyrainin,SoftwareType,DateUTC
2013-04-22 00:09:00,60.8,58.5,30.00,SSW,202,0.0,-999.0,92,-99.99,,,0.00,Acu-Link.com,2013-04-22 05:09:00,
2013-04-22 00:24:00,60.4,58.4,30.00,North,0,2.2,-999.0,93,-99.99,,,0.00,Acu-Link.com,2013-04-22 05:24:00,
2013-04-22 00:39:00,60.1,58.3,30.00,NE,45,2.2,-999.0,94,-99.99,,,0.00,Acu-Link.com,2013-04-22 05:39:00,
2013-04-22 00:54:00,60.1,58.6,30.00,ESE,112,1.1,-999.0,95,-99.99,,,0.00,Acu-Link.com,2013-04-22 05:54:00,
2013-04-22 01:09:00,59.5,58.7,30.00,NNW,337,3.1,-999.0,97,-99.99,,,0.00,Acu-Link.com,2013-04-22 06:09:00,
2013-04-22 01:25:00,59.2,58.6,29.99,WNW,292,3.1,-999.0,98,-99.99,,,0.00,Acu-Link.com,2013-04-22 06:25:00,
2013-04-22 01:40:00,59.2,58.6,30.00,SE,135,2.7,-999.0,98,-99.99,,,0.00,Acu-Link.com,2013-04-22 06:40:00,
2013-04-22 01:55:00,58.8,58.3,29.99,South,180,3.8,-999.0,98,-99.99,,,0.00,Acu-Link.com,2013-04-22 06:55:00,
2013-04-22 02:10:00,58.3,57.7,29.99,South,180,1.1,-999.0,98,-99.99,,,0.00,Acu-Link.com,2013-04-22 07:10:00,
2013-04-22 02:25:00,58.1,57.5,29.97,ESE,112,6.3,-999.0,98,-99.99,,,0.00,Acu-Link.com,2013-04-22 07:25:00,
2013-04-22 02:41:00,57.9,57.4,29.98,SSE,157,1.6,-999.0,98,-99.99,,,0.00,Acu-Link.com,2013-04-22 07:41:00,
2013-04-22 02:56:00,58.1,57.5,29.97,South,180,1.6,-999.0,98,-99.99,,,0.00,Acu-Link.com,2013-04-22 07:56:00,
2013-04-22 03:11:00,58.3,57.7,29.97,ESE,112,4.3,-999.0,98,-99.99,,,0.00,Acu-Link.com,2013-04-22 08:11:00,
2013-04-22 03:26:00,58.6,58.1,29.96,SSE,157,7.4,-999.0,98,-99.99,,,0.00,Acu-Link.com,2013-04-22 08:26:00,
2013-04-22 03:42:00,58.5,57.9,29.96,ESE,112,2.7,-999.0,98,-99.99,,,0.00,Acu-Link.com,2013-04-22 08:42:00,
2013-04-22 03:57:00,59.2,58.6,29.96,ESE,112,2.7,-999.0,98,-99.99,,,0.00,Acu-Link.com,2013-04-22 08:57:00,
2013-04-22 04:12:00,59.7,59.2,29.96,South,180,4.7,-999.0,98,-99.99,,,0.00,Acu-Link.com,2013-04-22 09:12:00,
2013-04-22 04:27:00,60.3,59.7,29.96,SE,135,3.8,-999.0,98,-99.99,,,0.00,Acu-Link.com,2013-04-22 09:27:00,
2013-04-22 04:42:00,60.4,59.9,29.95,South,180,4.7,-999.0,98,-99.99,,,0.00,Acu-Link.com,2013-04-22 09:42:00,
2013-04-22 04:58:00,60.4,59.9,29.96,South,180,4.3,-999.0,98,-99.99,,,0.00,Acu-Link.com,2013-04-22 09:58:00,
2013-04-22 05:13:00,60.6,60.1,29.96,South,180,4.7,-999.0,98,-99.99,,,0.00,Acu-Link.com,2013-04-22 10:13:00,
2013-04-22 05:28:00,60.6,60.1,29.96,South,180,4.7,-999.0,98,-99.99,,,0.00,Acu-Link.com,2013-04-22 10:28:00,
2013-04-22 05:43:00,60.4,59.9,29.95,SSE,157,6.7,-999.0,98,-99.99,,,0.00,Acu-Link.com,2013-04-22 10:43:00,
2013-04-22 05:58:00,59.9,59.3,29.95,ESE,112,2.7,-999.0,98,-99.99,,,0.00,Acu-Link.com,2013-04-22 10:58:00,
2013-04-22 06:14:00,59.4,58.8,29.95,South,180,2.7,-999.0,98,-99.99,,,0.00,Acu-Link.com,2013-04-22 11:14:00,
2013-04-22 06:29:00,59.2,58.6,29.95,South,180,6.7,-999.0,98,-99.99,,,0.00,Acu-Link.com,2013-04-22 11:29:00,
2013-04-22 06:44:00,58.5,57.9,29.96,South,180,4.7,-999.0,98,-99.99,,,0.00,Acu-Link.com,2013-04-22 11:44:00,
2013-04-22 06:59:00,57.9,57.4,29.96,SSE,157,4.3,-999.0,98,-99.99,,,0.00,Acu-Link.com,2013-04-22 11:59:00,
2013-04-22 07:14:00,57.6,57.0,29.96,SSE,157,5.1,-999.0,98,-99.99,,,0.00,Acu-Link.com,2013-04-22 12:14:00,
2013-04-22 07:29:00,57.7,57.2,29.98,SSE,157,4.3,-999.0,98,-99.99,,,0.00,Acu-Link.com,2013-04-22 12:29:00,
2013-04-22 07:45:00,58.8,58.3,29.97,SSW,202,5.1,-999.0,98,-99.99,,,0.00,Acu-Link.com,2013-04-22 12:45:00,
2013-04-22 08:00:00,59.5,59.0,29.97,South,180,4.7,-999.0,98,-99.99,,,0.00,Acu-Link.com,2013-04-22 13:00:00,
2013-04-22 08:15:00,60.4,59.9,29.97,SSE,157,5.1,-999.0,98,-99.99,,,0.00,Acu-Link.com,2013-04-22 13:15:00,
2013-04-22 08:30:00,60.4,59.9,29.98,ESE,112,5.8,-999.0,98,-99.99,,,0.00,Acu-Link.com,2013-04-22 13:30:00,
2013-04-22 08:46:00,61.0,60.4,29.98,South,180,7.8,-999.0,98,-99.99,,,0.00,Acu-Link.com,2013-04-22 13:46:00,
2013-04-22 09:01:00,61.7,61.1,29.98,SSE,157,7.4,-999.0,98,-99.99,,,0.00,Acu-Link.com,2013-04-22 14:01:00,
2013-04-22 09:16:00,62.1,61.5,29.98,SE,135,3.1,-999.0,98,-99.99,,,0.00,Acu-Link.com,2013-04-22 14:16:00,
2013-04-22 09:31:00,62.4,61.8,29.98,South,180,5.8,-999.0,98,-99.99,,,0.00,Acu-Link.com,2013-04-22 14:31:00,
2013-04-22 09:46:00,62.8,62.2,29.98,ESE,112,8.3,-999.0,98,-99.99,,,0.00,Acu-Link.com,2013-04-22 14:46:00,
2013-04-22 10:02:00,63.0,62.4,29.97,SSE,157,13.4,-999.0,98,-99.99,,,0.00,Acu-Link.com,2013-04-22 15:02:00,
2013-04-22 10:17:00,63.5,62.9,29.97,South,180,8.3,-999.0,98,-99.99,,,0.00,Acu-Link.com,2013-04-22 15:17:00,
2013-04-22 10:32:00,64.2,63.6,29.97,ESE,112,9.4,-999.0,98,-99.99,,,0.00,Acu-Link.com,2013-04-22 15:32:00,
2013-04-22 10:47:00,64.6,64.0,29.97,SW,225,6.7,-999.0,98,-99.99,,,0.00,Acu-Link.com,2013-04-22 15:47:00,
2013-04-22 11:03:00,65.7,65.1,29.97,SSE,157,8.3,-999.0,98,-99.99,,,0.00,Acu-Link.com,2013-04-22 16:03:00,
2013-04-22 11:18:00,66.2,64.1,29.97,South,180,8.9,-999.0,93,-99.99,,,0.00,Acu-Link.com,2013-04-22 16:18:00,
2013-04-22 11:33:00,67.5,63.8,29.96,SSW,202,6.7,-999.0,88,-99.99,,,0.00,Acu-Link.com,2013-04-22 16:33:00,
2013-04-22 11:48:00,68.7,63.7,29.96,South,180,11.0,-999.0,84,-99.99,,,0.00,Acu-Link.com,2013-04-22 16:48:00,
2013-04-22 12:03:00,68.4,64.0,29.96,SW,225,5.8,-999.0,86,-99.99,,,0.00,Acu-Link.com,2013-04-22 17:03:00,
2013-04-22 12:19:00,68.9,64.2,29.96,SSW,202,11.0,-999.0,85,-99.99,,,0.00,Acu-Link.com,2013-04-22 17:19:00,
2013-04-22 12:34:00,69.4,63.7,29.95,South,180,11.4,-999.0,82,-99.99,,,0.00,Acu-Link.com,2013-04-22 17:34:00,
2013-04-22 12:49:00,70.2,64.4,29.94,SSW,202,11.0,-999.0,82,-99.99,,,0.00,Acu-Link.com,2013-04-22 17:49:00,
2013-04-22 13:04:00,71.6,64.0,29.93,SW,225,7.4,-999.0,77,-99.99,,,0.00,Acu-Link.com,2013-04-22 18:04:00,
2013-04-22 13:19:00,72.3,63.9,29.91,SSE,157,4.7,-999.0,75,-99.99,,,0.00,Acu-Link.com,2013-04-22 18:19:00,
2013-04-22 13:35:00,76.1,65.2,29.91,SW,225,2.7,-999.0,69,-99.99,,,0.00,Acu-Link.com,2013-04-22 18:35:00,
2013-04-22 13:50:00,78.1,65.3,29.89,SE,135,9.8,-999.0,65,-99.99,,,0.00,Acu-Link.com,2013-04-22 18:50:00,
2013-04-22 14:05:00,77.0,64.8,29.88,South,180,6.7,-999.0,66,-99.99,,,0.00,Acu-Link.com,2013-04-22 19:05:00,
2013-04-22 14:20:00,79.3,65.2,29.87,SE,135,5.1,-999.0,62,-99.99,,,0.00,Acu-Link.com,2013-04-22 19:20:00,
2013-04-22 14:35:00,80.2,65.1,29.87,SSE,157,9.8,-999.0,60,-99.99,,,0.00,Acu-Link.com,2013-04-22 19:35:00,
2013-04-22 14:51:00,80.4,64.8,29.85,SSE,157,7.4,-999.0,59,-99.99,,,0.00,Acu-Link.com,2013-04-22 19:51:00,
2013-04-22 15:06:00,79.7,64.1,29.85,South,180,10.3,-999.0,59,-99.99,,,0.00,Acu-Link.com,2013-04-22 20:06:00,
2013-04-22 15:21:00,82.0,65.3,29.84,SSW,202,7.4,-999.0,57,-99.99,,,0.00,Acu-Link.com,2013-04-22 20:21:00,
2013-04-22 15:36:00,80.8,64.1,29.82,SSW,202,12.5,-999.0,57,-99.99,,,0.00,Acu-Link.com,2013-04-22 20:36:00,
2013-04-22 15:51:00,81.9,64.6,29.80,SSW,202,11.9,-999.0,56,-99.99,,,0.00,Acu-Link.com,2013-04-22 20:51:00,
2013-04-22 16:07:00,82.0,64.3,29.80,SSW,202,8.3,-999.0,55,-99.99,,,0.00,Acu-Link.com,2013-04-22 21:07:00,
2013-04-22 16:22:00,84.7,65.1,29.79,SSE,157,4.7,-999.0,52,-99.99,,,0.00,Acu-Link.com,2013-04-22 21:22:00,
2013-04-22 16:37:00,83.8,63.8,29.78,South,180,9.8,-999.0,51,-99.99,,,0.00,Acu-Link.com,2013-04-22 21:37:00,
2013-04-22 16:52:00,83.5,62.9,29.78,SSE,157,7.4,-999.0,50,-99.99,,,0.00,Acu-Link.com,2013-04-22 21:52:00,
2013-04-22 17:08:00,83.5,63.4,29.77,WSW,247,4.3,-999.0,51,-99.99,,,0.00,Acu-Link.com,2013-04-22 22:08:00,
2013-04-22 17:23:00,83.3,62.7,29.76,South,180,10.3,-999.0,50,-99.99,,,0.00,Acu-Link.com,2013-04-22 22:23:00,
2013-04-22 17:38:00,83.7,62.4,29.75,SE,135,5.8,-999.0,49,-99.99,,,0.00,Acu-Link.com,2013-04-22 22:38:00,
2013-04-22 17:53:00,82.9,62.4,29.75,South,180,10.3,-999.0,50,-99.99,,,0.00,Acu-Link.com,2013-04-22 22:53:00,
2013-04-22 18:08:00,83.3,62.7,29.75,South,180,8.9,-999.0,50,-99.99,,,0.00,Acu-Link.com,2013-04-22 23:08:00,
2013-04-22 18:23:00,83.1,62.0,29.74,South,180,3.8,-999.0,49,-99.99,,,0.00,Acu-Link.com,2013-04-22 23:23:00,
2013-04-22 18:38:00,82.0,61.0,29.74,South,180,11.0,-999.0,49,-99.99,,,0.00,Acu-Link.com,2013-04-22 23:38:00,
2013-04-22 18:54:00,81.1,61.3,29.73,South,180,7.8,-999.0,51,-99.99,,,0.00,Acu-Link.com,2013-04-22 23:54:00,
2013-04-22 19:09:00,80.6,61.9,29.73,ESE,112,4.3,-999.0,53,-99.99,,,0.00,Acu-Link.com,2013-04-23 00:09:00,
2013-04-22 19:25:00,79.9,61.7,29.73,SW,225,5.8,-999.0,54,-99.99,,,0.00,Acu-Link.com,2013-04-23 00:25:00,
2013-04-22 19:40:00,79.0,61.9,29.73,SSE,157,5.1,-999.0,56,-99.99,,,0.00,Acu-Link.com,2013-04-23 00:40:00,
2013-04-22 19:55:00,77.7,61.3,29.73,South,180,6.3,-999.0,57,-99.99,,,0.00,Acu-Link.com,2013-04-23 00:55:00,
2013-04-22 20:10:00,77.0,61.6,29.73,SSW,202,4.7,-999.0,59,-99.99,,,0.00,Acu-Link.com,2013-04-23 01:10:00,
2013-04-22 20:26:00,76.1,61.7,29.73,SSW,202,5.1,-999.0,61,-99.99,,,0.00,Acu-Link.com,2013-04-23 01:26:00,
2013-04-22 20:41:00,75.7,61.8,29.73,South,180,7.8,-999.0,62,-99.99,,,0.00,Acu-Link.com,2013-04-23 01:41:00,
2013-04-22 20:56:00,75.0,62.0,29.73,SSW,202,5.1,-999.0,64,-99.99,,,0.00,Acu-Link.com,2013-04-23 01:56:00,
2013-04-22 21:11:00,73.4,61.8,29.74,SSE,157,3.1,-999.0,67,-99.99,,,0.00,Acu-Link.com,2013-04-23 02:11:00,
2013-04-22 21:26:00,72.7,63.1,29.75,South,180,3.8,-999.0,72,-99.99,,,0.00,Acu-Link.com,2013-04-23 02:26:00,
2013-04-22 21:42:00,72.1,63.4,29.75,South,180,2.7,-999.0,74,-99.99,,,0.00,Acu-Link.com,2013-04-23 02:42:00,
2013-04-22 21:57:00,71.6,64.0,29.76,SE,135,3.8,-999.0,77,-99.99,,,0.00,Acu-Link.com,2013-04-23 02:57:00,
2013-04-22 22:12:00,70.9,64.0,29.76,ESE,112,0.0,-999.0,79,-99.99,,,0.00,Acu-Link.com,2013-04-23 03:12:00,
2013-04-22 22:27:00,69.6,63.9,29.77,South,180,0.0,-999.0,82,-99.99,,,0.00,Acu-Link.com,2013-04-23 03:27:00,
2013-04-22 22:42:00,67.6,63.3,29.77,ENE,67,0.0,-999.0,86,-99.99,,,0.00,Acu-Link.com,2013-04-23 03:42:00,
2013-04-22 22:58:00,66.4,64.3,29.77,South,180,0.0,-999.0,93,-99.99,,,0.00,Acu-Link.com,2013-04-23 03:58:00,
2013-04-22 23:13:00,65.5,64.6,29.76,South,180,0.0,-999.0,97,-99.99,,,0.00,Acu-Link.com,2013-04-23 04:13:00,
2013-04-22 23:28:00,64.9,64.4,29.76,SSE,157,0.0,-999.0,98,-99.99,,,0.00,Acu-Link.com,2013-04-23 04:28:00,
2013-04-22 23:43:00,63.9,63.3,29.76,SE,135,0.0,-999.0,98,-99.99,,,0.00,Acu-Link.com,2013-04-23 04:43:00,
2013-04-22 23:58:00,63.5,62.9,29.76,SE,135,0.0,-999.0,98,-99.99,,,0.00,Acu-Link.com,2013-04-23 04:58:00,